Lowell, Ohio
Current Conditions -  °F | °C
As of 8:13 AM on Friday 24 Oct 2014 (Local Time) from KPKB Reporting Station
Moderate Fog Moderate Fog  
Wind Chill: 37°   Ceiling: 200
Heat Index: 37°   Visibility: 0mi
Dew Point: 36°   Wind: 3mph
Humidity: 96%   Direction: 140°SE
Pressure: 30.16"   Gusts: NA
Location:  39.53°N, 81.51°W
Report Text: KPKB 241213Z 14003KT M1/4SM R03/1200FT FG VV002 03/02 A3016 RMK AO2 T00280022
Loading
Personal Weather Stations






























Interactive Weather Map
Tropical Storm Tracking
New forecast layout! Learn more

10-Day Weather Forecast

Advertisements
Track Severe Weather on mobile